TimeGMT,TemperatureF,Dew PointF,Humidity,Sea Level PressureIn,VisibilityMPH,Wind Direction,Wind SpeedMPH,Gust SpeedMPH,PrecipitationIn,Events,Conditions,WindDirDegrees,DateUTC
2:50 AM,47,39,67,29.88,22,NW,31.1,,,Rain,Rain,310,2012-12-04 02:50:00
5:50 AM,47,38,60,29.90,19,NW,26.5,,,,Partly Cloudy,310,2012-12-04 05:50:00
8:20 AM,41.0,37.4,87,29.92,6.2,NW,25.3,48.3,N/A,,Scattered Clouds,320,2012-12-04 08:20:00
8:50 AM,44.6,39.2,81,29.92,6.2,WNW,27.6,42.6,N/A,,Partly Cloudy,290,2012-12-04 08:50:00
9:20 AM,46.4,37.4,71,29.92,6.2,WNW,27.6,39.1,N/A,,Scattered Clouds,300,2012-12-04 09:20:00
9:50 AM,46.4,39.2,76,29.92,6.2,WNW,27.6,-,N/A,,Partly Cloudy,300,2012-12-04 09:50:00
10:20 AM,44.6,37.4,76,29.89,6.2,WNW,28.8,41.4,N/A,,Scattered Clouds,290,2012-12-04 10:20:00
10:50 AM,46.4,39.2,76,29.89,6.2,WNW,28.8,-,N/A,,Partly Cloudy,290,2012-12-04 10:50:00
11:20 AM,48.2,37.4,66,29.89,6.2,NW,25.3,36.8,N/A,,Scattered Clouds,310,2012-12-04 11:20:00
11:50 AM,47,38,61,29.89,19,WNW,25.3,,,,Partly Cloudy,300,2012-12-04 11:50:00
11:50 AM,46.4,37.4,71,29.89,6.2,WNW,25.3,36.8,N/A,,Partly Cloudy,300,2012-12-04 11:50:00
12:20 PM,46.4,37.4,71,29.89,6.2,WNW,25.3,36.8,N/A,,Partly Cloudy,290,2012-12-04 12:20:00
1:50 PM,46.4,37.4,71,29.86,6.2,WNW,26.5,-,N/A,,Partly Cloudy,290,2012-12-04 13:50:00
2:20 PM,42.8,39.2,87,29.86,6.2,WNW,24.2,40.3,N/A,,Scattered Clouds,300,2012-12-04 14:20:00
2:50 PM,45,38,69,29.84,17,WNW,29.9,,,Rain,Rain,290,2012-12-04 14:50:00
2:50 PM,46.4,39.2,76,29.83,6.2,WNW,27.6,39.1,N/A,,Scattered Clouds,290,2012-12-04 14:50:00
3:20 PM,44.6,39.2,81,29.83,6.2,West,20.7,33.4,N/A,,Scattered Clouds,280,2012-12-04 15:20:00
3:50 PM,44.6,39.2,81,29.83,6.2,West,20.7,32.2,N/A,,Scattered Clouds,280,2012-12-04 15:50:00
4:20 PM,46.4,41.0,81,29.80,6.2,WNW,19.6,31.1,N/A,,Scattered Clouds,290,2012-12-04 16:20:00
4:50 PM,46.4,39.2,76,29.80,6.2,WNW,24.2,35.7,N/A,,Partly Cloudy,300,2012-12-04 16:50:00
5:50 PM,46,39,69,29.80,16,WNW,27.6,,,,Scattered Clouds,290,2012-12-04 17:50:00
8:50 PM,48,42,74,29.74,14,WNW,28.8,,,Rain,Rain,300,2012-12-04 20:50:00
11:50 PM,47,41,72,29.75,14,NW,23.0,,,Rain,Light Rain Showers,320,2012-12-04 23:50:00